Time;durP1;ratioP1;P1;durP2;ratioP2;P2;SDS_P1;SDS_P2;PMS_P1;PMS_P2;Temp;Humidity;BMP_temperature;BMP_pressure;BME280_temperature;BME280_humidity;BME280_pressure;Samples;Min_cycle;Max_cycle;Signal;HPM_P1;HPM_P2
2022/09/04 00:00:11;;;;;;;;;;;16.90;99.90;;;;;;5095914;28;19915;-76
2022/09/04 00:02:55;;;;;;;;;;;16.90;99.90;;;;;;5095750;28;19908;-78
2022/09/04 00:05:39;;;;;;;;;;;16.90;99.90;;;;;;5095939;28;19961;-80
2022/09/04 00:08:09;;;;;;;;;;;16.90;99.90;;;;;;5095614;28;19912;-76
2022/09/04 00:10:40;;;;;;;;;;;16.90;99.90;;;;;;5095597;28;19908;-75
2022/09/04 00:13:13;;;;;;;;;;;16.90;99.90;;;;;;5095526;28;19915;-77
2022/09/04 00:15:43;;;;;;;;;;;16.90;99.90;;;;;;5096172;28;19915;-76
2022/09/04 00:18:15;;;;;;;;;;;16.90;99.90;;;;;;5095767;28;20280;-79
2022/09/04 00:20:51;;;;;;;;;;;16.80;99.90;;;;;;5095355;28;19908;-78
2022/09/04 00:23:26;;;;;;;;;;;16.80;99.90;;;;;;5095625;28;19908;-78
2022/09/04 00:26:00;;;;;;;;;;;16.80;99.90;;;;;;5095498;28;19934;-76
2022/09/04 00:28:29;;;;;;;;;;;16.80;99.90;;;;;;5095211;28;20368;-77
2022/09/04 00:31:18;;;;;;;;;;;16.90;99.90;;;;;;5095350;28;20014;-76
2022/09/04 00:33:53;;;;;;;;;;;17.00;99.90;;;;;;5084280;28;19914;-76
2022/09/04 00:36:21;;;;;;;;;;;17.10;99.90;;;;;;5095082;28;19908;-77
2022/09/04 00:38:50;;;;;;;;;;;17.10;99.90;;;;;;5095028;28;20011;-80
2022/09/04 00:41:31;;;;;;;;;;;17.30;99.90;;;;;;5095006;28;20360;-76
2022/09/04 00:44:19;;;;;;;;;;;17.20;99.90;;;;;;5094588;28;19908;-80
2022/09/04 00:46:53;;;;;;;;;;;17.30;99.90;;;;;;5094957;28;19938;-81
2022/09/04 00:49:39;;;;;;;;;;;17.20;99.90;;;;;;5094959;28;19908;-78
2022/09/04 00:52:07;;;;;;;;;;;17.10;99.90;;;;;;5076601;28;20002;-76
2022/09/04 00:54:44;;;;;;;;;;;17.10;99.90;;;;;;5094698;28;19914;-78
2022/09/04 00:57:25;;;;;;;;;;;16.90;99.90;;;;;;5076140;28;20284;-79
2022/09/04 00:59:54;;;;;;;;;;;16.90;99.90;;;;;;5094626;28;19916;-79
2022/09/04 01:02:51;;;;;;;;;;;16.80;99.90;;;;;;5094615;28;19916;-78
2022/09/04 01:05:28;;;;;;;;;;;16.70;99.90;;;;;;5049570;28;19909;-79
2022/09/04 01:08:23;;;;;;;;;;;16.80;99.90;;;;;;5094160;28;19916;-79
2022/09/04 01:11:01;;;;;;;;;;;16.80;99.90;;;;;;5022405;28;19920;-81
2022/09/04 01:13:41;;;;;;;;;;;16.80;99.90;;;;;;5094692;28;20336;-77
2022/09/04 01:16:17;;;;;;;;;;;16.80;99.90;;;;;;5094385;28;19908;-78
2022/09/04 01:18:43;;;;;;;;;;;16.80;99.90;;;;;;5094569;28;19957;-76
2022/09/04 01:21:19;;;;;;;;;;;16.90;99.90;;;;;;5094233;28;19912;-77
2022/09/04 01:23:55;;;;;;;;;;;16.90;99.90;;;;;;5094193;28;19919;-80
2022/09/04 01:26:29;;;;;;;;;;;16.90;99.90;;;;;;5075637;28;20373;-77
2022/09/04 01:29:09;;;;;;;;;;;17.00;99.90;;;;;;5075980;28;19909;-78
2022/09/04 01:31:35;;;;;;;;;;;16.90;99.90;;;;;;5094094;28;20361;-77
2022/09/04 01:34:18;;;;;;;;;;;16.90;99.90;;;;;;5094086;28;19908;-79
2022/09/04 01:37:04;;;;;;;;;;;16.90;99.90;;;;;;5094091;28;19961;-78
2022/09/04 01:39:32;;;;;;;;;;;16.90;99.90;;;;;;5094507;28;19914;-78
2022/09/04 01:42:17;;;;;;;;;;;16.90;99.90;;;;;;5075891;28;19908;-77
2022/09/04 01:44:43;;;;;;;;;;;16.90;99.90;;;;;;5092952;28;19920;-78
2022/09/04 01:47:26;;;;;;;;;;;16.90;99.90;;;;;;5094467;28;19919;-79
2022/09/04 01:50:04;;;;;;;;;;;16.90;99.90;;;;;;5093543;28;19968;-76
2022/09/04 01:52:39;;;;;;;;;;;17.00;99.90;;;;;;5094064;28;19909;-76
2022/09/04 01:55:05;;;;;;;;;;;16.90;99.90;;;;;;5093889;28;19961;-78
2022/09/04 01:57:33;;;;;;;;;;;16.80;99.90;;;;;;5093887;28;19908;-76
2022/09/04 02:00:07;;;;;;;;;;;16.90;99.90;;;;;;5075717;28;20003;-79
2022/09/04 02:02:33;;;;;;;;;;;16.90;99.90;;;;;;5075715;28;20376;-75
2022/09/04 02:05:17;;;;;;;;;;;17.00;99.90;;;;;;5093848;28;19947;-77
2022/09/04 02:08:20;;;;;;;;;;;17.00;99.90;;;;;;5093880;28;19912;-79
2022/09/04 02:11:03;;;;;;;;;;;17.00;99.90;;;;;;4995419;28;20405;-80
2022/09/04 02:13:52;;;;;;;;;;;16.90;99.90;;;;;;5087479;28;19961;-76
2022/09/04 02:16:18;;;;;;;;;;;16.90;99.90;;;;;;5075347;28;19908;-77
2022/09/04 02:18:44;;;;;;;;;;;17.00;99.90;;;;;;5075556;28;20396;-78
2022/09/04 02:21:17;;;;;;;;;;;17.00;99.90;;;;;;5093622;28;19914;-76
2022/09/04 02:23:50;;;;;;;;;;;17.00;99.90;;;;;;5093964;28;19958;-76
2022/09/04 02:26:38;;;;;;;;;;;17.00;99.90;;;;;;5093638;28;20015;-77
2022/09/04 02:29:18;;;;;;;;;;;17.00;99.90;;;;;;5093666;28;19912;-78
2022/09/04 02:31:44;;;;;;;;;;;17.00;99.90;;;;;;5093788;28;19912;-79
2022/09/04 02:34:37;;;;;;;;;;;17.00;99.90;;;;;;5075405;28;19953;-80
2022/09/04 02:37:02;;;;;;;;;;;17.00;99.90;;;;;;5062981;28;19915;-78
2022/09/04 02:39:38;;;;;;;;;;;17.00;99.90;;;;;;5093434;28;19909;-80
2022/09/04 02:42:11;;;;;;;;;;;16.90;99.90;;;;;;5093708;28;19908;-75
2022/09/04 02:44:56;;;;;;;;;;;16.90;99.90;;;;;;5093200;28;19948;-79
2022/09/04 02:47:25;;;;;;;;;;;16.90;99.90;;;;;;5093851;28;19944;-82
2022/09/04 02:50:13;;;;;;;;;;;16.90;99.90;;;;;;5075244;28;20026;-78
2022/09/04 02:52:51;;;;;;;;;;;16.80;99.90;;;;;;5093520;28;19908;-78
2022/09/04 02:55:22;;;;;;;;;;;16.80;99.90;;;;;;5093363;28;19958;-79
2022/09/04 02:57:53;;;;;;;;;;;16.80;99.90;;;;;;5093499;28;19956;-78
2022/09/04 03:00:20;;;;;;;;;;;16.80;99.90;;;;;;5094597;28;19946;-79
2022/09/04 03:02:54;;;;;;;;;;;16.80;99.90;;;;;;5097088;28;20269;-76
2022/09/04 03:05:23;;;;;;;;;;;16.70;99.90;;;;;;5096996;28;19908;-77
2022/09/04 03:08:05;;;;;;;;;;;16.80;99.90;;;;;;5097108;28;19973;-78
2022/09/04 03:10:38;;;;;;;;;;;16.80;99.90;;;;;;5097095;28;19953;-80
2022/09/04 03:13:08;;;;;;;;;;;16.80;99.90;;;;;;5096983;28;19931;-81
2022/09/04 03:15:45;;;;;;;;;;;16.80;99.90;;;;;;5096835;28;20456;-76
2022/09/04 03:18:18;;;;;;;;;;;16.80;99.90;;;;;;5096965;28;19908;-77
2022/09/04 03:20:53;;;;;;;;;;;16.80;99.90;;;;;;5096929;28;19919;-79
2022/09/04 03:23:20;;;;;;;;;;;16.70;99.90;;;;;;5096810;28;19938;-77
2022/09/04 03:25:50;;;;;;;;;;;16.70;99.90;;;;;;5096588;28;19957;-75
2022/09/04 03:28:21;;;;;;;;;;;16.70;99.90;;;;;;5096893;28;20287;-80
2022/09/04 03:30:48;;;;;;;;;;;16.70;99.90;;;;;;5096859;28;20008;-79
2022/09/04 03:33:13;;;;;;;;;;;16.70;99.90;;;;;;5096503;28;20064;-76
2022/09/04 03:35:48;;;;;;;;;;;16.70;99.90;;;;;;5096437;28;19915;-78
2022/09/04 03:38:21;;;;;;;;;;;16.70;99.90;;;;;;5096386;28;19935;-76
2022/09/04 03:41:03;;;;;;;;;;;16.70;99.90;;;;;;5096618;28;20009;-81
2022/09/04 03:43:34;;;;;;;;;;;16.70;99.90;;;;;;5096357;28;19916;-79
2022/09/04 03:46:15;;;;;;;;;;;16.60;99.90;;;;;;5095987;28;19929;-79
2022/09/04 03:48:46;;;;;;;;;;;16.60;99.90;;;;;;5096983;28;19912;-80
2022/09/04 03:51:31;;;;;;;;;;;16.70;99.90;;;;;;5096243;28;19951;-80
2022/09/04 03:54:11;;;;;;;;;;;16.70;99.90;;;;;;5096123;28;19998;-76
2022/09/04 03:56:52;;;;;;;;;;;16.60;99.90;;;;;;5096416;28;19916;-75
2022/09/04 03:59:27;;;;;;;;;;;16.70;99.90;;;;;;5096178;28;19935;-77
2022/09/04 04:02:01;;;;;;;;;;;16.60;99.90;;;;;;5095968;28;19931;-79
2022/09/04 04:04:36;;;;;;;;;;;16.60;99.90;;;;;;5095874;28;19915;-79
2022/09/04 04:07:07;;;;;;;;;;;16.70;99.90;;;;;;5095915;28;19912;-80
2022/09/04 04:09:48;;;;;;;;;;;16.70;99.90;;;;;;5077412;28;19991;-77
2022/09/04 04:12:17;;;;;;;;;;;16.60;99.90;;;;;;5095449;28;19957;-79
2022/09/04 04:15:04;;;;;;;;;;;16.60;99.90;;;;;;5095894;28;19915;-78
2022/09/04 04:17:32;;;;;;;;;;;16.70;99.90;;;;;;5095848;28;19953;-78
2022/09/04 04:20:10;;;;;;;;;;;16.70;99.90;;;;;;5095640;28;19908;-77
2022/09/04 04:22:54;;;;;;;;;;;16.70;99.90;;;;;;5095579;28;19915;-77
2022/09/04 04:25:58;;;;;;;;;;;16.70;99.90;;;;;;5095491;28;19930;-76
2022/09/04 04:28:41;;;;;;;;;;;16.80;99.90;;;;;;5013595;28;19918;-81
2022/09/04 04:31:17;;;;;;;;;;;16.80;99.90;;;;;;5089421;28;19954;-79
2022/09/04 04:33:54;;;;;;;;;;;16.70;99.90;;;;;;5095407;28;19914;-79
2022/09/04 04:36:26;;;;;;;;;;;16.70;99.90;;;;;;5095251;28;19955;-79
2022/09/04 04:39:08;;;;;;;;;;;16.60;99.90;;;;;;5095385;28;19908;-75
2022/09/04 04:42:03;;;;;;;;;;;16.60;99.90;;;;;;5077032;28;19947;-77
2022/09/04 04:47:33;;;;;;;;;;;16.60;99.90;;;;;;5094915;28;19920;-75
2022/09/04 04:50:09;;;;;;;;;;;16.70;99.90;;;;;;5095280;28;19962;-78
2022/09/04 04:52:43;;;;;;;;;;;16.60;99.90;;;;;;5094984;28;19912;-78
2022/09/04 04:55:16;;;;;;;;;;;16.70;99.90;;;;;;5095319;28;19908;-78
2022/09/04 04:57:52;;;;;;;;;;;16.70;99.90;;;;;;5094934;28;19908;-77
2022/09/04 05:00:23;;;;;;;;;;;16.60;99.90;;;;;;5094943;28;20285;-81
2022/09/04 05:02:59;;;;;;;;;;;16.70;99.90;;;;;;5094743;28;19920;-79
2022/09/04 05:05:25;;;;;;;;;;;16.60;99.90;;;;;;5076268;28;20007;-78
2022/09/04 05:08:14;;;;;;;;;;;16.50;99.90;;;;;;5094693;28;20011;-78
2022/09/04 05:10:40;;;;;;;;;;;16.50;99.90;;;;;;5094646;28;19908;-76
2022/09/04 05:13:18;;;;;;;;;;;16.60;99.90;;;;;;5094581;28;20013;-76
2022/09/04 05:15:51;;;;;;;;;;;16.60;99.90;;;;;;5094529;28;19915;-76
2022/09/04 05:18:29;;;;;;;;;;;16.50;99.90;;;;;;5094553;28;19965;-76
2022/09/04 05:20:57;;;;;;;;;;;16.50;99.90;;;;;;5094572;28;19951;-77
2022/09/04 05:23:35;;;;;;;;;;;16.40;99.90;;;;;;5093595;28;19951;-78
2022/09/04 05:26:01;;;;;;;;;;;16.50;99.90;;;;;;5094261;28;19987;-76
2022/09/04 05:28:47;;;;;;;;;;;16.50;99.90;;;;;;5094325;28;20062;-79
2022/09/04 05:31:19;;;;;;;;;;;16.50;99.90;;;;;;5094559;28;19957;-82
2022/09/04 05:33:54;;;;;;;;;;;16.50;99.90;;;;;;5094410;28;19912;-75
2022/09/04 05:36:31;;;;;;;;;;;16.50;99.90;;;;;;5094391;28;19912;-78
2022/09/04 05:39:15;;;;;;;;;;;16.50;99.90;;;;;;5094185;28;19915;-79
2022/09/04 05:41:41;;;;;;;;;;;16.50;99.90;;;;;;5094317;28;20386;-74
2022/09/04 05:44:31;;;;;;;;;;;16.60;99.90;;;;;;5093870;28;20364;-77
2022/09/04 05:46:56;;;;;;;;;;;16.70;99.90;;;;;;5094019;28;19955;-75
2022/09/04 05:49:45;;;;;;;;;;;16.70;99.90;;;;;;5094586;28;19915;-78
2022/09/04 05:52:22;;;;;;;;;;;16.70;99.90;;;;;;5094197;28;20320;-77
2022/09/04 05:55:07;;;;;;;;;;;16.70;99.90;;;;;;5094190;28;19912;-78
2022/09/04 05:57:50;;;;;;;;;;;16.70;99.90;;;;;;5093944;28;19908;-77
2022/09/04 06:00:17;;;;;;;;;;;16.80;99.90;;;;;;5075794;28;19996;-76
2022/09/04 06:03:01;;;;;;;;;;;16.80;99.90;;;;;;5094032;28;20300;-78
2022/09/04 06:05:45;;;;;;;;;;;16.90;99.90;;;;;;5093810;28;19909;-79
2022/09/04 06:08:11;;;;;;;;;;;17.10;99.90;;;;;;5093738;28;20294;-79
2022/09/04 06:10:42;;;;;;;;;;;17.10;99.90;;;;;;5093677;28;19996;-77
2022/09/04 06:13:31;;;;;;;;;;;17.20;99.90;;;;;;5093704;28;19908;-78
2022/09/04 06:16:15;;;;;;;;;;;17.30;99.90;;;;;;5082682;28;20007;-77
2022/09/04 06:18:51;;;;;;;;;;;17.40;99.90;;;;;;5093721;28;19908;-81
2022/09/04 06:21:31;;;;;;;;;;;17.50;99.90;;;;;;5094315;28;19908;-79
2022/09/04 06:23:57;;;;;;;;;;;17.80;99.90;;;;;;5093797;28;19915;-78
2022/09/04 06:26:31;;;;;;;;;;;18.40;99.90;;;;;;5093667;28;20006;-77
2022/09/04 06:28:57;;;;;;;;;;;18.90;99.90;;;;;;5093589;28;19908;-80
2022/09/04 06:31:22;;;;;;;;;;;19.20;99.90;;;;;;5093556;28;19912;-77
2022/09/04 06:34:08;;;;;;;;;;;19.60;99.90;;;;;;5075434;28;19912;-80
2022/09/04 06:36:37;;;;;;;;;;;20.00;99.90;;;;;;5055328;28;20062;-78
2022/09/04 06:39:03;;;;;;;;;;;20.70;99.90;;;;;;5097563;28;19909;-80
2022/09/04 06:41:35;;;;;;;;;;;21.10;99.90;;;;;;5097530;28;19908;-81
2022/09/04 06:44:25;;;;;;;;;;;21.70;99.90;;;;;;5097356;28;19920;-81
2022/09/04 06:47:08;;;;;;;;;;;21.90;99.90;;;;;;5097307;28;19957;-75
2022/09/04 06:49:53;;;;;;;;;;;22.20;99.90;;;;;;5098129;28;19930;-79
2022/09/04 06:52:18;;;;;;;;;;;22.50;99.90;;;;;;5097465;28;19909;-76
2022/09/04 06:54:53;;;;;;;;;;;22.70;99.90;;;;;;5079072;28;19918;-78
2022/09/04 06:57:37;;;;;;;;;;;23.10;99.90;;;;;;5097184;28;19961;-79
2022/09/04 07:00:06;;;;;;;;;;;23.50;99.90;;;;;;5097554;28;19915;-81
2022/09/04 07:02:35;;;;;;;;;;;23.60;99.90;;;;;;5097210;28;19914;-77
2022/09/04 07:05:02;;;;;;;;;;;24.10;99.90;;;;;;5097120;28;20359;-80
2022/09/04 07:07:42;;;;;;;;;;;24.30;99.90;;;;;;5078655;28;20404;-77
2022/09/04 07:10:14;;;;;;;;;;;24.40;99.90;;;;;;5097100;28;19908;-78
2022/09/04 07:12:43;;;;;;;;;;;25.30;99.90;;;;;;5097043;28;20257;-75
2022/09/04 07:15:27;;;;;;;;;;;24.20;99.90;;;;;;5096897;28;19931;-78
2022/09/04 07:17:52;;;;;;;;;;;22.00;99.90;;;;;;5096839;28;19931;-78
2022/09/04 07:20:36;;;;;;;;;;;21.20;99.90;;;;;;5097046;28;20364;-80
2022/09/04 07:23:03;;;;;;;;;;;20.80;99.90;;;;;;5097631;28;19908;-76
2022/09/04 07:25:29;;;;;;;;;;;23.40;99.90;;;;;;5096879;28;19908;-80
2022/09/04 07:28:14;;;;;;;;;;;24.90;99.90;;;;;;5096586;28;20330;-80
2022/09/04 07:30:46;;;;;;;;;;;25.50;98.90;;;;;;5096635;28;19965;-79
2022/09/04 07:33:18;;;;;;;;;;;25.70;97.60;;;;;;5096977;28;19908;-79
2022/09/04 07:36:06;;;;;;;;;;;26.80;96.00;;;;;;5096873;28;20399;-79
2022/09/04 07:38:55;;;;;;;;;;;27.10;94.30;;;;;;5096340;28;19908;-78
2022/09/04 07:41:21;;;;;;;;;;;26.30;93.90;;;;;;5078540;28;19909;-78
2022/09/04 07:43:56;;;;;;;;;;;26.50;94.20;;;;;;5096176;28;19914;-77
2022/09/04 07:46:29;;;;;;;;;;;26.80;93.50;;;;;;5095522;28;20006;-81
2022/09/04 07:49:09;;;;;;;;;;;27.40;91.50;;;;;;5096716;28;19912;-79
2022/09/04 07:51:40;;;;;;;;;;;27.90;90.50;;;;;;5096573;28;19912;-77
2022/09/04 07:54:24;;;;;;;;;;;28.40;90.20;;;;;;5096294;28;19932;-81
2022/09/04 07:57:03;;;;;;;;;;;30.20;86.70;;;;;;5096085;28;19999;-77
2022/09/04 07:59:35;;;;;;;;;;;29.90;83.70;;;;;;5096189;28;19915;-79
2022/09/04 08:02:01;;;;;;;;;;;29.80;82.70;;;;;;5096107;28;19908;-82
2022/09/04 08:04:26;;;;;;;;;;;30.10;81.20;;;;;;5095930;28;20343;-80
2022/09/04 08:06:52;;;;;;;;;;;30.20;80.50;;;;;;5095828;28;20291;-78
2022/09/04 08:09:17;;;;;;;;;;;29.30;80.60;;;;;;5077770;28;19908;-78
2022/09/04 08:11:48;;;;;;;;;;;28.40;82.80;;;;;;5095799;28;19908;-79
2022/09/04 08:14:19;;;;;;;;;;;27.90;85.30;;;;;;5095846;28;19916;-82
2022/09/04 08:17:04;;;;;;;;;;;27.90;85.20;;;;;;5095695;28;20387;-79
2022/09/04 08:19:32;;;;;;;;;;;28.00;84.70;;;;;;5077507;28;19908;-80
2022/09/04 08:21:58;;;;;;;;;;;28.90;83.30;;;;;;5077454;28;19916;-80
2022/09/04 08:24:24;;;;;;;;;;;29.90;80.00;;;;;;5095512;28;19944;-79
2022/09/04 08:26:59;;;;;;;;;;;29.40;78.10;;;;;;5095416;28;20431;-76
2022/09/04 08:29:33;;;;;;;;;;;27.70;84.10;;;;;;5095407;28;20376;-80
2022/09/04 08:32:03;;;;;;;;;;;28.70;80.50;;;;;;5095493;28;19915;-83
2022/09/04 08:34:47;;;;;;;;;;;29.40;80.80;;;;;;5077139;28;19908;-80
2022/09/04 08:37:18;;;;;;;;;;;29.90;79.00;;;;;;5095235;28;20368;-80
2022/09/04 08:39:44;;;;;;;;;;;29.10;79.50;;;;;;5095186;28;20377;-83
2022/09/04 08:42:28;;;;;;;;;;;28.80;80.00;;;;;;5094909;28;19915;-80
2022/09/04 08:45:17;;;;;;;;;;;31.20;78.00;;;;;;5094844;28;20372;-80
2022/09/04 08:47:50;;;;;;;;;;;30.30;74.40;;;;;;5095442;28;19959;-76
2022/09/04 08:50:15;;;;;;;;;;;30.60;76.80;;;;;;5095766;28;19908;-82
2022/09/04 08:53:07;;;;;;;;;;;32.30;71.70;;;;;;5095067;28;20338;-78
2022/09/04 08:55:44;;;;;;;;;;;32.90;69.70;;;;;;5063835;28;19916;-84
2022/09/04 08:58:16;;;;;;;;;;;33.20;67.70;;;;;;5094758;28;19931;-83
2022/09/04 09:00:42;;;;;;;;;;;33.60;67.50;;;;;;5095003;28;19912;-83
2022/09/04 09:03:10;;;;;;;;;;;32.90;66.90;;;;;;5094819;28;20330;-77
2022/09/04 09:06:00;;;;;;;;;;;33.30;66.80;;;;;;5094940;28;20287;-80
2022/09/04 09:08:27;;;;;;;;;;;33.20;64.50;;;;;;5094845;28;19919;-79
2022/09/04 09:10:52;;;;;;;;;;;33.70;63.70;;;;;;5094607;28;19908;-80
2022/09/04 09:13:18;;;;;;;;;;;34.10;65.70;;;;;;5094675;28;20406;-76
2022/09/04 09:15:46;;;;;;;;;;;35.50;62.50;;;;;;5094516;28;20331;-82
2022/09/04 09:18:30;;;;;;;;;;;35.20;62.00;;;;;;5094722;28;19957;-83
2022/09/04 09:21:08;;;;;;;;;;;35.70;59.80;;;;;;5095132;28;19963;-78
2022/09/04 09:23:37;;;;;;;;;;;35.50;59.10;;;;;;5076304;28;20397;-79
2022/09/04 09:26:07;;;;;;;;;;;37.00;58.80;;;;;;5076094;28;19909;-82
2022/09/04 09:28:48;;;;;;;;;;;33.70;59.10;;;;;;5094329;28;19908;-77
2022/09/04 09:31:25;;;;;;;;;;;30.90;63.60;;;;;;5094376;28;20326;-81
2022/09/04 09:34:10;;;;;;;;;;;29.40;67.40;;;;;;5094249;28;19974;-77
2022/09/04 09:36:48;;;;;;;;;;;30.00;66.70;;;;;;5094236;28;20371;-80
2022/09/04 09:39:13;;;;;;;;;;;29.00;68.00;;;;;;5094288;28;19963;-80
2022/09/04 09:41:45;;;;;;;;;;;29.80;68.40;;;;;;5094142;28;20367;-82
2022/09/04 09:44:20;;;;;;;;;;;32.00;65.50;;;;;;5093845;28;19920;-79
2022/09/04 09:46:57;;;;;;;;;;;33.20;63.20;;;;;;5094269;28;19912;-80
2022/09/04 09:49:31;;;;;;;;;;;34.40;61.30;;;;;;5094614;28;20011;-77
2022/09/04 09:52:15;;;;;;;;;;;36.10;56.30;;;;;;5094026;28;19954;-81
2022/09/04 09:54:41;;;;;;;;;;;35.50;55.70;;;;;;5094123;28;19908;-81
2022/09/04 09:57:15;;;;;;;;;;;36.30;56.80;;;;;;5094145;28;19915;-80
2022/09/04 10:00:03;;;;;;;;;;;35.30;56.40;;;;;;5093920;28;20283;-82
2022/09/04 10:02:47;;;;;;;;;;;33.00;59.20;;;;;;5094070;28;20402;-78
2022/09/04 10:05:31;;;;;;;;;;;33.70;58.60;;;;;;5093832;28;19973;-84
2022/09/04 10:08:11;;;;;;;;;;;35.00;56.80;;;;;;5075589;28;19919;-79
2022/09/04 10:10:58;;;;;;;;;;;34.60;56.90;;;;;;5093201;28;19908;-79
2022/09/04 10:13:43;;;;;;;;;;;32.50;58.80;;;;;;5093927;28;19908;-80
2022/09/04 10:16:38;;;;;;;;;;;31.20;61.00;;;;;;5094142;28;20299;-81
2022/09/04 10:19:15;;;;;;;;;;;30.50;62.80;;;;;;5075897;28;20265;-77
2022/09/04 10:21:41;;;;;;;;;;;29.90;63.40;;;;;;5093664;28;20066;-82
2022/09/04 10:24:18;;;;;;;;;;;30.80;63.10;;;;;;5093881;28;20012;-79
2022/09/04 10:26:44;;;;;;;;;;;29.90;64.00;;;;;;5093774;28;20309;-80
2022/09/04 10:29:25;;;;;;;;;;;29.80;64.70;;;;;;5093664;28;19916;-80
2022/09/04 10:31:53;;;;;;;;;;;29.00;66.20;;;;;;5093847;28;20007;-79
2022/09/04 10:34:26;;;;;;;;;;;28.30;67.30;;;;;;5093556;28;19908;-81
2022/09/04 10:37:03;;;;;;;;;;;28.20;68.30;;;;;;5093571;28;19940;-79
2022/09/04 10:42:24;;;;;;;;;;;29.90;67.20;;;;;;5093583;28;20284;-79
2022/09/04 10:45:01;;;;;;;;;;;30.90;64.90;;;;;;5093067;28;20000;-83
2022/09/04 10:47:43;;;;;;;;;;;33.30;63.40;;;;;;5093307;28;19924;-79
2022/09/04 10:50:28;;;;;;;;;;;34.10;60.20;;;;;;5094246;28;20368;-80
2022/09/04 10:53:05;;;;;;;;;;;33.00;57.60;;;;;;5093478;28;19908;-78
2022/09/04 10:56:10;;;;;;;;;;;31.60;59.30;;;;;;5093619;28;20361;-80
2022/09/04 10:58:47;;;;;;;;;;;30.80;60.10;;;;;;5011571;28;19972;-81
2022/09/04 11:01:25;;;;;;;;;;;29.70;61.50;;;;;;5011410;28;19916;-77
2022/09/04 11:04:03;;;;;;;;;;;29.20;63.10;;;;;;5062316;28;20279;-82
2022/09/04 11:06:35;;;;;;;;;;;28.80;64.70;;;;;;5093191;28;19965;-77
2022/09/04 11:09:06;;;;;;;;;;;29.30;63.00;;;;;;5093409;28;19915;-79
2022/09/04 11:11:39;;;;;;;;;;;31.10;62.70;;;;;;5093206;28;19970;-79
2022/09/04 11:14:27;;;;;;;;;;;34.40;58.70;;;;;;5093259;28;20363;-80
2022/09/04 11:16:55;;;;;;;;;;;34.00;57.10;;;;;;5075137;28;19965;-78
2022/09/04 11:19:31;;;;;;;;;;;37.60;56.10;;;;;;5093294;28;20375;-80
2022/09/04 11:22:15;;;;;;;;;;;37.70;50.80;;;;;;5075676;28;19914;-79
2022/09/04 11:25:00;;;;;;;;;;;35.80;53.00;;;;;;5078512;28;20002;-75
2022/09/04 11:27:35;;;;;;;;;;;37.10;53.30;;;;;;5096877;28;20463;-76
2022/09/04 11:30:19;;;;;;;;;;;39.10;51.00;;;;;;5096603;28;19908;-79
2022/09/04 11:33:03;;;;;;;;;;;41.30;51.10;;;;;;5096590;28;19912;-82
2022/09/04 11:35:51;;;;;;;;;;;43.00;47.80;;;;;;5096805;28;19958;-77
2022/09/04 11:38:42;;;;;;;;;;;38.40;48.40;;;;;;5096512;28;19908;-81
2022/09/04 11:41:17;;;;;;;;;;;35.40;51.60;;;;;;5096630;28;20352;-80
2022/09/04 11:43:55;;;;;;;;;;;36.60;50.50;;;;;;5077925;28;19908;-79
2022/09/04 11:46:25;;;;;;;;;;;36.00;49.40;;;;;;5096457;28;19958;-80
2022/09/04 11:49:09;;;;;;;;;;;33.70;52.20;;;;;;5096779;28;19908;-74
2022/09/04 11:51:50;;;;;;;;;;;31.70;54.90;;;;;;5096240;28;19919;-80
2022/09/04 11:54:27;;;;;;;;;;;31.00;56.40;;;;;;5096157;28;20261;-80
2022/09/04 11:57:00;;;;;;;;;;;30.20;56.80;;;;;;5096228;28;19931;-82
2022/09/04 11:59:31;;;;;;;;;;;30.50;58.00;;;;;;5096112;28;20364;-77
2022/09/04 12:02:15;;;;;;;;;;;30.00;58.60;;;;;;5095893;28;19989;-81
2022/09/04 12:05:00;;;;;;;;;;;29.60;60.00;;;;;;5095964;28;19908;-78
2022/09/04 12:07:29;;;;;;;;;;;36.30;54.00;;;;;;5095842;28;19916;-80
2022/09/04 12:10:00;;;;;;;;;;;41.10;47.30;;;;;;5096056;28;19947;-78
2022/09/04 12:12:29;;;;;;;;;;;40.90;46.20;;;;;;5095785;28;19915;-80
2022/09/04 12:15:03;;;;;;;;;;;42.50;46.10;;;;;;5077522;28;19912;-80
2022/09/04 12:17:48;;;;;;;;;;;37.00;48.20;;;;;;5095624;28;20333;-79
2022/09/04 12:20:22;;;;;;;;;;;36.60;51.70;;;;;;5095772;28;19908;-80
2022/09/04 12:22:54;;;;;;;;;;;33.70;52.50;;;;;;5095504;28;19908;-79
2022/09/04 12:25:40;;;;;;;;;;;30.90;56.60;;;;;;5095652;28;19951;-78
2022/09/04 12:28:14;;;;;;;;;;;32.70;56.20;;;;;;5081024;28;19912;-78
2022/09/04 12:30:58;;;;;;;;;;;40.80;50.70;;;;;;5095662;28;20392;-79
2022/09/04 12:33:24;;;;;;;;;;;44.00;46.10;;;;;;5094964;28;19958;-77
2022/09/04 12:36:09;;;;;;;;;;;43.00;44.40;;;;;;5095401;28;19947;-80
2022/09/04 12:38:36;;;;;;;;;;;44.70;44.20;;;;;;5077234;28;20015;-79
2022/09/04 12:41:02;;;;;;;;;;;45.50;42.90;;;;;;5095404;28;19908;-76
2022/09/04 12:43:33;;;;;;;;;;;44.50;42.20;;;;;;5095230;28;19915;-79
2022/09/04 12:46:18;;;;;;;;;;;44.90;42.20;;;;;;5094689;28;19967;-79
2022/09/04 12:48:56;;;;;;;;;;;45.20;41.40;;;;;;5095359;28;19919;-80
2022/09/04 12:51:25;;;;;;;;;;;45.30;41.80;;;;;;5095156;28;20372;-81
2022/09/04 12:54:13;;;;;;;;;;;46.80;40.60;;;;;;5094914;28;19909;-82
2022/09/04 12:56:57;;;;;;;;;;;45.50;40.40;;;;;;5095163;28;20368;-84
2022/09/04 12:59:40;;;;;;;;;;;46.30;40.40;;;;;;5094912;28;19951;-80
2022/09/04 13:02:12;;;;;;;;;;;48.30;40.10;;;;;;5094887;28;20260;-79
2022/09/04 13:04:44;;;;;;;;;;;45.10;40.00;;;;;;5095253;28;19912;-77
2022/09/04 13:07:28;;;;;;;;;;;44.10;41.50;;;;;;5094719;28;19908;-80
2022/09/04 13:10:00;;;;;;;;;;;42.40;42.00;;;;;;5094749;28;19908;-79
2022/09/04 13:12:25;;;;;;;;;;;44.80;41.10;;;;;;5094676;28;20360;-79
2022/09/04 13:15:01;;;;;;;;;;;42.60;41.40;;;;;;5094755;28;19915;-79
2022/09/04 13:17:33;;;;;;;;;;;37.50;44.40;;;;;;5094518;28;20288;-76
2022/09/04 13:20:08;;;;;;;;;;;34.30;47.80;;;;;;5094713;28;19954;-81
2022/09/04 13:22:40;;;;;;;;;;;32.40;51.00;;;;;;5094677;28;19908;-80
2022/09/04 13:25:24;;;;;;;;;;;38.50;47.60;;;;;;5094553;28;19915;-79
2022/09/04 13:28:04;;;;;;;;;;;43.00;43.10;;;;;;5094679;28;19908;-83
2022/09/04 13:30:30;;;;;;;;;;;38.40;44.00;;;;;;5094549;28;20310;-78
2022/09/04 13:33:12;;;;;;;;;;;33.60;48.80;;;;;;5094403;28;19957;-81
2022/09/04 13:35:41;;;;;;;;;;;31.30;52.00;;;;;;5076056;28;19908;-82
2022/09/04 13:38:25;;;;;;;;;;;30.30;54.10;;;;;;5094138;28;19944;-83
2022/09/04 13:41:10;;;;;;;;;;;30.10;54.70;;;;;;5076006;28;19908;-78
2022/09/04 13:43:41;;;;;;;;;;;29.70;55.80;;;;;;5094072;28;19912;-81
2022/09/04 13:46:11;;;;;;;;;;;29.90;55.70;;;;;;5093359;28;19920;-82
2022/09/04 13:48:37;;;;;;;;;;;37.00;49.40;;;;;;5094034;28;19915;-82
2022/09/04 13:51:06;;;;;;;;;;;36.80;49.20;;;;;;5094551;28;19908;-80
2022/09/04 13:53:49;;;;;;;;;;;35.50;48.90;;;;;;5094036;28;19908;-83
2022/09/04 13:56:18;;;;;;;;;;;36.30;49.60;;;;;;5094105;28;19912;-81
2022/09/04 13:58:50;;;;;;;;;;;33.50;50.30;;;;;;5093884;28;19915;-81
2022/09/04 14:01:22;;;;;;;;;;;31.50;53.20;;;;;;5093840;28;19935;-82
2022/09/04 14:03:52;;;;;;;;;;;30.50;54.20;;;;;;5075602;28;19908;-81
2022/09/04 14:06:19;;;;;;;;;;;30.00;55.30;;;;;;5093791;28;19908;-83
2022/09/04 14:08:47;;;;;;;;;;;30.30;55.30;;;;;;5093834;28;19961;-82
2022/09/04 14:11:31;;;;;;;;;;;34.30;53.80;;;;;;5093809;28;19908;-77
2022/09/04 14:13:57;;;;;;;;;;;38.50;49.20;;;;;;5075619;28;19908;-78
2022/09/04 14:16:23;;;;;;;;;;;35.50;48.60;;;;;;5093644;28;19960;-78
2022/09/04 14:18:55;;;;;;;;;;;32.90;51.50;;;;;;5093679;28;19981;-77
2022/09/04 14:21:22;;;;;;;;;;;31.10;53.80;;;;;;5093908;28;19915;-76
2022/09/04 14:24:06;;;;;;;;;;;30.90;55.40;;;;;;5093807;28;19953;-78
2022/09/04 14:26:46;;;;;;;;;;;35.70;51.10;;;;;;5093615;28;19997;-81
2022/09/04 14:29:14;;;;;;;;;;;35.90;49.80;;;;;;5093838;28;20291;-80
2022/09/04 14:31:48;;;;;;;;;;;36.30;48.10;;;;;;5093572;28;19909;-80
2022/09/04 14:34:14;;;;;;;;;;;33.20;50.30;;;;;;5093672;28;20485;-79
2022/09/04 14:36:55;;;;;;;;;;;32.10;52.30;;;;;;5093436;28;19912;-80
2022/09/04 14:39:30;;;;;;;;;;;33.90;52.30;;;;;;5075132;28;20364;-81
2022/09/04 14:41:58;;;;;;;;;;;35.10;49.10;;;;;;5093482;28;19934;-81
2022/09/04 14:44:31;;;;;;;;;;;35.90;49.80;;;;;;5093206;28;20003;-80
2022/09/04 14:46:58;;;;;;;;;;;34.00;49.10;;;;;;5093574;28;19908;-78
2022/09/04 14:49:28;;;;;;;;;;;31.90;52.40;;;;;;5093909;28;20384;-80
2022/09/04 14:51:55;;;;;;;;;;;33.00;52.50;;;;;;5093819;28;19974;-82
2022/09/04 14:54:36;;;;;;;;;;;35.40;50.90;;;;;;5093453;28;19909;-81
2022/09/04 14:57:28;;;;;;;;;;;38.60;47.90;;;;;;5095794;28;19934;-79
2022/09/04 15:00:13;;;;;;;;;;;41.00;46.40;;;;;;5065916;28;19908;-79
2022/09/04 15:02:53;;;;;;;;;;;41.40;44.90;;;;;;5097303;28;19908;-81
2022/09/04 15:05:21;;;;;;;;;;;40.30;44.70;;;;;;5097163;28;19915;-79
2022/09/04 15:07:49;;;;;;;;;;;39.30;45.70;;;;;;5097109;28;19911;-80
2022/09/04 15:10:24;;;;;;;;;;;39.30;45.60;;;;;;5097018;28;19958;-79